Time;durP1;ratioP1;P1;durP2;ratioP2;P2;SDS_P1;SDS_P2;PMS_P1;PMS_P2;Temp;Humidity;BMP_temperature;BMP_pressure;BME280_temperature;BME280_humidity;BME280_pressure;Samples;Min_cycle;Max_cycle;Signal;HPM_P1;HPM_P2
2021/12/22 00:00:15;;;;;;;23.93;11.03;;;;;;;;;;4959033;28;20235;-74
2021/12/22 00:03:05;;;;;;;26.37;13.27;;;;;;;;;;4976082;28;20705;-74
2021/12/22 00:05:42;;;;;;;27.27;11.57;;;;;;;;;;4976553;28;20266;-73
2021/12/22 00:08:12;;;;;;;19.93;10.03;;;;;;;;;;4959013;28;20245;-73
2021/12/22 00:10:41;;;;;;;26.07;13.07;;;;;;;;;;4973998;28;20289;-73
2021/12/22 00:13:08;;;;;;;29.03;11.00;;;;;;;;;;4974620;28;20238;-74
2021/12/22 00:15:35;;;;;;;19.40;11.47;;;;;;;;;;4943308;28;20227;-73
2021/12/22 00:18:04;;;;;;;29.73;13.47;;;;;;;;;;4976134;28;20235;-74
2021/12/22 00:20:31;;;;;;;23.70;10.80;;;;;;;;;;4976110;28;20847;-74
2021/12/22 00:22:59;;;;;;;30.33;14.03;;;;;;;;;;4976024;28;20230;-74
2021/12/22 00:25:27;;;;;;;25.57;9.53;;;;;;;;;;4959186;28;20226;-74
2021/12/22 00:27:56;;;;;;;19.13;8.07;;;;;;;;;;4975934;28;20588;-74
2021/12/22 00:30:24;;;;;;;27.67;13.03;;;;;;;;;;4975925;28;20226;-73
2021/12/22 00:32:54;;;;;;;31.13;10.93;;;;;;;;;;4975788;28;20235;-74
2021/12/22 00:35:26;;;;;;;29.10;12.07;;;;;;;;;;4975754;28;20325;-74
2021/12/22 00:37:54;;;;;;;29.43;12.30;;;;;;;;;;4975970;28;20234;-73
2021/12/22 00:40:23;;;;;;;28.53;13.20;;;;;;;;;;4975850;28;20234;-73
2021/12/22 00:42:50;;;;;;;35.07;14.13;;;;;;;;;;4975556;28;20302;-73
2021/12/22 00:45:23;;;;;;;20.47;10.93;;;;;;;;;;4975383;28;20249;-74
2021/12/22 00:47:50;;;;;;;30.97;13.40;;;;;;;;;;4975005;28;20345;-74
2021/12/22 00:50:17;;;;;;;24.47;13.03;;;;;;;;;;4975817;28;20296;-74
2021/12/22 00:52:45;;;;;;;22.03;10.60;;;;;;;;;;4975879;28;20230;-73
2021/12/22 00:55:17;;;;;;;20.97;11.57;;;;;;;;;;4973584;28;20730;-73
2021/12/22 00:57:45;;;;;;;19.90;10.17;;;;;;;;;;4974077;28;20289;-73
2021/12/22 01:00:15;;;;;;;29.90;13.10;;;;;;;;;;4975443;28;20231;-73
2021/12/22 01:02:43;;;;;;;31.77;14.97;;;;;;;;;;4975439;28;20273;-74
2021/12/22 01:05:14;;;;;;;31.60;14.50;;;;;;;;;;4975275;28;20231;-73
2021/12/22 01:07:44;;;;;;;30.30;12.43;;;;;;;;;;4975077;28;20231;-73
2021/12/22 01:10:28;;;;;;;39.63;17.00;;;;;;;;;;4974089;28;20239;-73
2021/12/22 01:12:57;;;;;;;34.33;17.40;;;;;;;;;;4974964;28;20599;-73
2021/12/22 01:15:25;;;;;;;34.40;15.67;;;;;;;;;;4975062;28;20611;-72
2021/12/22 01:20:56;;;;;;;41.70;16.73;;;;;;;;;;4975173;28;20603;-72
2021/12/22 01:23:23;;;;;;;41.13;19.90;;;;;;;;;;4958328;28;20293;-72
2021/12/22 01:25:51;;;;;;;54.67;24.97;;;;;;;;;;4957848;28;20226;-72
2021/12/22 01:28:23;;;;;;;63.63;25.47;;;;;;;;;;4974803;28;20247;-72
2021/12/22 01:30:51;;;;;;;41.73;19.53;;;;;;;;;;4975087;28;20239;-72
2021/12/22 01:33:19;;;;;;;43.73;19.57;;;;;;;;;;4974352;28;20250;-72
2021/12/22 01:35:47;;;;;;;49.60;22.37;;;;;;;;;;4974900;28;20219;-72
2021/12/22 01:38:14;;;;;;;51.80;20.77;;;;;;;;;;4957632;28;20285;-72
2021/12/22 01:40:44;;;;;;;54.03;24.10;;;;;;;;;;4974685;28;20231;-72
2021/12/22 01:43:13;;;;;;;77.33;31.00;;;;;;;;;;4974539;28;20234;-72
2021/12/22 01:51:07;;;;;;;55.17;22.63;;;;;;;;;;4974610;28;20289;-72
2021/12/22 01:53:41;;;;;;;44.83;19.47;;;;;;;;;;4972557;28;20293;-72
2021/12/22 01:56:34;;;;;;;41.20;18.37;;;;;;;;;;4974382;28;20238;-73
2021/12/22 01:59:00;;;;;;;40.10;19.57;;;;;;;;;;4972050;28;20242;-73
2021/12/22 02:01:31;;;;;;;40.47;20.27;;;;;;;;;;4974440;28;20770;-73
2021/12/22 02:03:59;;;;;;;39.10;18.90;;;;;;;;;;4957717;28;20243;-72
2021/12/22 02:06:27;;;;;;;50.10;22.53;;;;;;;;;;4974127;28;20235;-73
2021/12/22 02:08:55;;;;;;;52.87;21.93;;;;;;;;;;4957375;28;20238;-72
2021/12/22 02:11:22;;;;;;;49.00;21.53;;;;;;;;;;4974017;28;20641;-72
2021/12/22 02:13:58;;;;;;;64.13;24.87;;;;;;;;;;4974039;28;20759;-72
2021/12/22 02:16:27;;;;;;;62.90;26.37;;;;;;;;;;4974189;28;20238;-73
2021/12/22 02:18:55;;;;;;;58.20;25.67;;;;;;;;;;4974297;28;20244;-73
2021/12/22 02:21:25;;;;;;;41.80;21.17;;;;;;;;;;4973823;28;20231;-72
2021/12/22 02:23:53;;;;;;;53.07;24.37;;;;;;;;;;4973905;28;20244;-73
2021/12/22 02:26:28;;;;;;;49.77;22.93;;;;;;;;;;4973760;28;20246;-73
2021/12/22 02:29:01;;;;;;;54.80;21.57;;;;;;;;;;4974062;28;20308;-72
2021/12/22 02:31:31;;;;;;;39.27;20.33;;;;;;;;;;4973986;28;20242;-72
2021/12/22 02:33:59;;;;;;;43.00;20.07;;;;;;;;;;4956744;28;20305;-73
2021/12/22 02:36:29;;;;;;;40.67;19.67;;;;;;;;;;4972006;28;20246;-72
2021/12/22 02:38:59;;;;;;;44.10;22.03;;;;;;;;;;4972236;28;20235;-72
2021/12/22 02:41:29;;;;;;;43.57;20.80;;;;;;;;;;4972589;28;20627;-73
2021/12/22 02:43:58;;;;;;;58.00;25.97;;;;;;;;;;4973705;28;20264;-72
2021/12/22 02:46:29;;;;;;;52.17;23.30;;;;;;;;;;4972574;28;20709;-73
2021/12/22 02:48:57;;;;;;;47.47;22.47;;;;;;;;;;4973765;28;20301;-72
2021/12/22 02:51:27;;;;;;;47.07;21.77;;;;;;;;;;4973504;28;20238;-72
2021/12/22 02:56:40;;;;;;;45.47;21.43;;;;;;;;;;4955613;28;20236;-72
2021/12/22 03:04:24;;;;;;;46.70;20.43;;;;;;;;;;4973444;28;20227;-72
2021/12/22 03:09:30;;;;;;;46.07;22.73;;;;;;;;;;4974025;28;20249;-72
2021/12/22 03:12:00;;;;;;;41.47;22.70;;;;;;;;;;4977661;28;20230;-72
2021/12/22 03:14:28;;;;;;;53.90;23.00;;;;;;;;;;4960289;28;20237;-73
2021/12/22 03:16:57;;;;;;;64.97;25.77;;;;;;;;;;4977295;28;20258;-72
2021/12/22 03:19:29;;;;;;;52.00;24.97;;;;;;;;;;4976175;28;20238;-72
2021/12/22 03:22:03;;;;;;;50.23;23.47;;;;;;;;;;4960512;28;20245;-73
2021/12/22 03:24:32;;;;;;;37.17;19.63;;;;;;;;;;4976036;28;20605;-73
2021/12/22 03:27:02;;;;;;;41.50;20.97;;;;;;;;;;4960074;28;20237;-72
2021/12/22 03:29:35;;;;;;;45.47;22.07;;;;;;;;;;4976951;28;20246;-71
2021/12/22 03:32:03;;;;;;;40.33;19.60;;;;;;;;;;4976982;28;20262;-72
2021/12/22 03:34:31;;;;;;;41.17;21.43;;;;;;;;;;4976800;28;20241;-73
2021/12/22 03:36:58;;;;;;;44.73;21.17;;;;;;;;;;4960224;28;20269;-71
2021/12/22 03:39:27;;;;;;;55.80;25.93;;;;;;;;;;4977025;28;20234;-72
2021/12/22 03:41:55;;;;;;;62.07;28.50;;;;;;;;;;4977004;28;20594;-73
2021/12/22 03:44:23;;;;;;;73.70;28.90;;;;;;;;;;4975294;28;20254;-73
2021/12/22 03:46:53;;;;;;;72.23;27.43;;;;;;;;;;4976933;28;21349;-73
2021/12/22 03:49:20;;;;;;;66.63;26.80;;;;;;;;;;4976636;28;20246;-73
2021/12/22 03:51:47;;;;;;;52.60;27.30;;;;;;;;;;4966254;28;20290;-72
2021/12/22 03:54:14;;;;;;;43.83;21.67;;;;;;;;;;4957221;29;20310;-73
2021/12/22 03:56:42;;;;;;;42.43;20.87;;;;;;;;;;4957226;28;20699;-72
2021/12/22 03:59:09;;;;;;;52.10;21.60;;;;;;;;;;4957231;28;20267;-72
2021/12/22 04:01:37;;;;;;;43.53;21.80;;;;;;;;;;4940413;29;20291;-73
2021/12/22 04:04:12;;;;;;;47.07;21.93;;;;;;;;;;4957173;28;20296;-72
2021/12/22 04:06:41;;;;;;;47.37;22.63;;;;;;;;;;4957120;28;20239;-72
2021/12/22 04:09:09;;;;;;;44.83;22.23;;;;;;;;;;4957024;29;20239;-72
2021/12/22 04:11:36;;;;;;;52.03;24.47;;;;;;;;;;4957056;28;20657;-72
2021/12/22 04:14:04;;;;;;;55.63;24.17;;;;;;;;;;4956948;28;20235;-72
2021/12/22 04:16:31;;;;;;;48.27;22.87;;;;;;;;;;4957162;28;20239;-73
2021/12/22 04:18:59;;;;;;;47.63;22.60;;;;;;;;;;4957034;28;20239;-73
2021/12/22 04:21:26;;;;;;;48.60;23.50;;;;;;;;;;4957086;28;20234;-72
2021/12/22 04:23:54;;;;;;;47.10;23.40;;;;;;;;;;4939845;28;20239;-73
2021/12/22 04:26:21;;;;;;;49.47;22.87;;;;;;;;;;4956763;29;20247;-72
2021/12/22 04:28:48;;;;;;;44.47;22.70;;;;;;;;;;4956759;29;20243;-71
2021/12/22 04:31:16;;;;;;;63.13;30.50;;;;;;;;;;4949039;29;20243;-71
2021/12/22 04:33:43;;;;;;;57.40;26.30;;;;;;;;;;4939912;29;20796;-71
2021/12/22 04:36:11;;;;;;;48.53;23.27;;;;;;;;;;4956756;28;20231;-71
2021/12/22 04:38:38;;;;;;;52.87;23.97;;;;;;;;;;4955484;28;20243;-71
2021/12/22 04:41:05;;;;;;;44.60;21.97;;;;;;;;;;4956747;28;20293;-71
2021/12/22 04:43:32;;;;;;;51.63;22.30;;;;;;;;;;4956345;28;20239;-71
2021/12/22 04:45:59;;;;;;;47.37;21.30;;;;;;;;;;4956740;28;20242;-71
2021/12/22 04:48:27;;;;;;;50.17;24.47;;;;;;;;;;4955269;28;20235;-72
2021/12/22 04:50:54;;;;;;;41.50;22.63;;;;;;;;;;4956399;28;20282;-71
2021/12/22 04:53:25;;;;;;;46.53;23.47;;;;;;;;;;4956304;28;20236;-72
2021/12/22 04:55:57;;;;;;;56.50;25.60;;;;;;;;;;4956397;29;20235;-71
2021/12/22 04:58:24;;;;;;;55.00;24.47;;;;;;;;;;4952634;28;20286;-71
2021/12/22 05:00:51;;;;;;;58.73;26.40;;;;;;;;;;4954654;29;20296;-72
2021/12/22 05:03:19;;;;;;;56.10;26.17;;;;;;;;;;4954303;29;20232;-72
2021/12/22 05:05:46;;;;;;;58.93;27.03;;;;;;;;;;4953363;28;20262;-72
2021/12/22 05:08:16;;;;;;;58.00;30.00;;;;;;;;;;4949629;28;20239;-73
2021/12/22 05:10:43;;;;;;;48.33;22.60;;;;;;;;;;4954331;29;20235;-73
2021/12/22 05:13:10;;;;;;;49.67;23.60;;;;;;;;;;4935362;29;20312;-73
2021/12/22 05:15:39;;;;;;;46.70;23.03;;;;;;;;;;4952373;29;20593;-72
2021/12/22 05:20:49;;;;;;;54.13;25.10;;;;;;;;;;4950717;29;20238;-71
2021/12/22 05:23:18;;;;;;;48.07;22.20;;;;;;;;;;4946940;29;20238;-71
2021/12/22 05:25:46;;;;;;;53.10;24.97;;;;;;;;;;4967661;28;20281;-72
2021/12/22 05:28:13;;;;;;;51.40;24.27;;;;;;;;;;4957453;28;20247;-71
2021/12/22 05:30:41;;;;;;;53.50;25.50;;;;;;;;;;4938131;28;20286;-71
2021/12/22 05:33:08;;;;;;;49.27;24.37;;;;;;;;;;4954278;28;20239;-72
2021/12/22 05:35:36;;;;;;;25.77;12.83;;;;;;;;;;4952919;29;20235;-73
2021/12/22 05:38:03;;;;;;;25.00;10.70;;;;;;;;;;4954784;28;20246;-72
2021/12/22 05:40:31;;;;;;;24.03;10.27;;;;;;;;;;4921710;29;20785;-72
2021/12/22 05:42:58;;;;;;;27.43;10.93;;;;;;;;;;4954859;28;20240;-72
2021/12/22 05:45:26;;;;;;;27.63;14.67;;;;;;;;;;4955057;28;20657;-72
2021/12/22 05:47:54;;;;;;;33.60;17.03;;;;;;;;;;4954724;29;20723;-71
2021/12/22 05:50:23;;;;;;;40.17;19.73;;;;;;;;;;4938259;29;20293;-72
2021/12/22 05:52:51;;;;;;;41.27;19.93;;;;;;;;;;4952221;28;20733;-70
2021/12/22 05:55:18;;;;;;;26.87;13.27;;;;;;;;;;4937416;28;20235;-72
2021/12/22 05:57:46;;;;;;;43.43;21.60;;;;;;;;;;4953889;29;20240;-71
2021/12/22 06:00:14;;;;;;;41.23;19.70;;;;;;;;;;4952892;28;20623;-72
2021/12/22 06:02:42;;;;;;;39.33;15.20;;;;;;;;;;4950591;28;20318;-72
2021/12/22 06:05:10;;;;;;;23.03;10.10;;;;;;;;;;4958394;28;20238;-69
2021/12/22 06:07:39;;;;;;;35.97;19.87;;;;;;;;;;4945133;28;20230;-69
2021/12/22 06:10:09;;;;;;;36.37;15.00;;;;;;;;;;4960451;28;20243;-68
2021/12/22 06:12:36;;;;;;;26.03;12.90;;;;;;;;;;4963646;28;20222;-70
2021/12/22 06:15:04;;;;;;;29.83;15.60;;;;;;;;;;4963088;28;20231;-71
2021/12/22 06:17:31;;;;;;;31.10;13.60;;;;;;;;;;4961934;28;20262;-71
2021/12/22 06:19:59;;;;;;;29.23;15.77;;;;;;;;;;4958527;28;20265;-70
2021/12/22 06:22:28;;;;;;;40.57;17.53;;;;;;;;;;4961551;28;20765;-69
2021/12/22 06:24:56;;;;;;;31.80;15.03;;;;;;;;;;4955262;28;20222;-70
2021/12/22 06:27:23;;;;;;;29.90;13.87;;;;;;;;;;4961433;28;20239;-73
2021/12/22 06:29:55;;;;;;;40.70;16.50;;;;;;;;;;4958984;28;20271;-70
2021/12/22 06:32:35;;;;;;;20.93;9.50;;;;;;;;;;4959499;28;20251;-70
2021/12/22 06:35:02;;;;;;;34.17;12.87;;;;;;;;;;4958752;28;20713;-71
2021/12/22 06:37:30;;;;;;;21.00;10.20;;;;;;;;;;4961034;28;20222;-70
2021/12/22 06:39:57;;;;;;;29.80;13.40;;;;;;;;;;4967648;28;20277;-71
2021/12/22 06:42:25;;;;;;;25.00;12.53;;;;;;;;;;4955722;28;20238;-71
2021/12/22 06:44:52;;;;;;;28.43;12.50;;;;;;;;;;4951741;28;20600;-70
2021/12/22 06:47:19;;;;;;;22.50;9.80;;;;;;;;;;4955650;28;20732;-71
2021/12/22 06:49:48;;;;;;;27.47;12.93;;;;;;;;;;4939955;28;20714;-71
2021/12/22 06:52:15;;;;;;;15.30;9.67;;;;;;;;;;4942105;28;20239;-71
2021/12/22 06:54:43;;;;;;;24.23;11.67;;;;;;;;;;4912399;28;20741;-72
2021/12/22 06:57:14;;;;;;;20.73;10.57;;;;;;;;;;4926243;28;20321;-72
2021/12/22 06:59:41;;;;;;;25.30;10.87;;;;;;;;;;4963628;28;20588;-72
2021/12/22 07:02:08;;;;;;;44.63;19.67;;;;;;;;;;4962102;28;20242;-71
2021/12/22 07:04:37;;;;;;;25.63;12.90;;;;;;;;;;4961867;28;20282;-71
2021/12/22 07:07:04;;;;;;;13.17;7.70;;;;;;;;;;4930517;28;20314;-71
2021/12/22 07:09:31;;;;;;;37.27;18.37;;;;;;;;;;4957206;28;20265;-71
2021/12/22 07:11:59;;;;;;;20.33;11.17;;;;;;;;;;4962110;28;20227;-72
2021/12/22 07:14:26;;;;;;;33.07;15.07;;;;;;;;;;4961880;28;20219;-71
2021/12/22 07:16:55;;;;;;;40.57;18.13;;;;;;;;;;4963530;28;20234;-69
2021/12/22 07:19:22;;;;;;;20.00;8.57;;;;;;;;;;4963348;28;20310;-76
2021/12/22 07:21:49;;;;;;;24.47;11.20;;;;;;;;;;4937394;28;20227;-72
2021/12/22 07:24:17;;;;;;;26.20;12.80;;;;;;;;;;4964649;28;20247;-73
2021/12/22 07:26:44;;;;;;;22.67;11.40;;;;;;;;;;4961920;28;20690;-72
2021/12/22 07:29:12;;;;;;;43.17;18.57;;;;;;;;;;4958781;28;20242;-72
2021/12/22 07:31:40;;;;;;;35.57;18.87;;;;;;;;;;4947168;28;20633;-71
2021/12/22 07:34:15;;;;;;;28.87;14.70;;;;;;;;;;4939278;29;20703;-72
2021/12/22 07:36:49;;;;;;;34.57;14.57;;;;;;;;;;4952619;29;20239;-71
2021/12/22 07:39:17;;;;;;;28.27;13.63;;;;;;;;;;4951678;29;20238;-71
2021/12/22 07:41:44;;;;;;;40.20;16.97;;;;;;;;;;4936951;29;20241;-73
2021/12/22 07:44:12;;;;;;;36.10;15.77;;;;;;;;;;4953675;29;20243;-72
2021/12/22 07:46:40;;;;;;;32.67;12.33;;;;;;;;;;4953768;29;20714;-73
2021/12/22 07:49:07;;;;;;;35.87;16.80;;;;;;;;;;4952499;29;20227;-73
2021/12/22 07:51:34;;;;;;;42.87;19.33;;;;;;;;;;4953692;29;20572;-75
2021/12/22 07:54:02;;;;;;;37.07;16.10;;;;;;;;;;4936497;29;20372;-73
2021/12/22 07:56:30;;;;;;;38.80;17.57;;;;;;;;;;4955960;28;20270;-71
2021/12/22 07:58:57;;;;;;;38.13;17.17;;;;;;;;;;4957417;29;20318;-73
2021/12/22 08:01:24;;;;;;;28.30;15.13;;;;;;;;;;4956922;29;20238;-72
2021/12/22 08:03:53;;;;;;;35.07;15.77;;;;;;;;;;4924782;28;20223;-73
2021/12/22 08:06:20;;;;;;;27.27;15.00;;;;;;;;;;4957185;29;20243;-73
2021/12/22 08:08:48;;;;;;;30.13;12.70;;;;;;;;;;4956842;29;20714;-73
2021/12/22 08:11:15;;;;;;;26.10;15.00;;;;;;;;;;4956638;29;20250;-71
2021/12/22 08:13:42;;;;;;;25.27;12.63;;;;;;;;;;4956695;29;20239;-76
2021/12/22 08:16:09;;;;;;;30.77;12.43;;;;;;;;;;4956810;29;20710;-76
2021/12/22 08:18:37;;;;;;;35.00;16.37;;;;;;;;;;4954987;29;20322;-72
2021/12/22 08:21:04;;;;;;;30.97;11.20;;;;;;;;;;4922128;29;20253;-73
2021/12/22 08:23:35;;;;;;;34.70;13.70;;;;;;;;;;4940059;29;20239;-73
2021/12/22 08:26:02;;;;;;;26.33;11.30;;;;;;;;;;4924039;29;20235;-72
2021/12/22 08:28:29;;;;;;;23.60;11.47;;;;;;;;;;4956760;29;20290;-72
2021/12/22 08:30:56;;;;;;;17.33;8.33;;;;;;;;;;4939961;29;20267;-73
2021/12/22 08:33:26;;;;;;;22.37;10.17;;;;;;;;;;4939302;29;20258;-70
2021/12/22 08:38:58;;;;;;;10.33;5.47;;;;;;;;;;4956632;29;20231;-73
2021/12/22 08:41:33;;;;;;;10.43;5.60;;;;;;;;;;4955577;29;20326;-73
2021/12/22 08:44:03;;;;;;;13.67;7.50;;;;;;;;;;4956277;28;20239;-70
2021/12/22 08:46:32;;;;;;;22.03;10.40;;;;;;;;;;4956233;29;20580;-73
2021/12/22 08:49:00;;;;;;;14.70;7.13;;;;;;;;;;4955512;29;20318;-73
2021/12/22 08:51:28;;;;;;;8.23;4.07;;;;;;;;;;4955286;29;20243;-73
2021/12/22 08:53:55;;;;;;;8.17;5.43;;;;;;;;;;4939259;29;20576;-73
2021/12/22 08:56:23;;;;;;;9.87;6.27;;;;;;;;;;4939456;29;20678;-71
2021/12/22 08:58:51;;;;;;;34.27;19.23;;;;;;;;;;4956237;28;20243;-73
2021/12/22 09:01:18;;;;;;;13.10;5.77;;;;;;;;;;4956018;29;20235;-73
2021/12/22 09:03:46;;;;;;;24.73;11.83;;;;;;;;;;4939256;29;20243;-73
2021/12/22 09:06:14;;;;;;;14.23;7.07;;;;;;;;;;4956005;28;20235;-73
2021/12/22 09:08:41;;;;;;;21.60;8.83;;;;;;;;;;4945375;28;20285;-73
2021/12/22 09:11:10;;;;;;;13.60;6.87;;;;;;;;;;4963954;28;20246;-72
2021/12/22 09:13:39;;;;;;;14.93;7.53;;;;;;;;;;4966465;28;20310;-73
2021/12/22 09:16:08;;;;;;;11.87;7.83;;;;;;;;;;4960463;28;20731;-73
2021/12/22 09:18:36;;;;;;;17.33;7.43;;;;;;;;;;4944656;28;20238;-72
2021/12/22 09:21:08;;;;;;;21.03;9.10;;;;;;;;;;4960107;28;20233;-72
2021/12/22 09:23:35;;;;;;;9.77;5.03;;;;;;;;;;4964991;28;20227;-73
2021/12/22 09:26:04;;;;;;;11.17;6.23;;;;;;;;;;4963513;28;20710;-72
2021/12/22 09:28:32;;;;;;;16.57;7.03;;;;;;;;;;4947579;28;20617;-72
2021/12/22 09:31:00;;;;;;;7.70;4.80;;;;;;;;;;4965308;28;20251;-72
2021/12/22 09:33:27;;;;;;;8.93;5.30;;;;;;;;;;4961859;28;20219;-74
2021/12/22 09:35:55;;;;;;;15.30;7.47;;;;;;;;;;4963761;28;20234;-71
2021/12/22 09:38:23;;;;;;;10.07;6.23;;;;;;;;;;4946078;28;20318;-71
2021/12/22 09:40:50;;;;;;;11.87;6.33;;;;;;;;;;4933426;28;20274;-75
2021/12/22 09:43:18;;;;;;;10.67;5.73;;;;;;;;;;4963076;28;20318;-75
2021/12/22 09:45:50;;;;;;;14.10;6.70;;;;;;;;;;4962558;28;20230;-76
2021/12/22 09:49:24;;;;;;;15.97;7.83;;;;;;;;;;4948840;28;20288;-75
2021/12/22 09:53:52;;;;;;;7.50;5.03;;;;;;;;;;4961851;28;20235;-73
2021/12/22 09:56:23;;;;;;;12.77;7.03;;;;;;;;;;4954605;28;20231;-73
2021/12/22 09:58:51;;;;;;;22.13;10.73;;;;;;;;;;4959292;28;20283;-73
2021/12/22 10:01:22;;;;;;;14.10;7.30;;;;;;;;;;4931738;28;20699;-73
2021/12/22 10:03:57;;;;;;;16.00;8.27;;;;;;;;;;4950122;28;20275;-71
2021/12/22 10:06:25;;;;;;;27.73;16.03;;;;;;;;;;4954562;28;20314;-71
2021/12/22 10:09:01;;;;;;;25.00;13.13;;;;;;;;;;4961497;28;20714;-70
2021/12/22 10:11:31;;;;;;;10.17;5.60;;;;;;;;;;4960969;28;20258;-71
2021/12/22 10:13:59;;;;;;;19.37;10.13;;;;;;;;;;4942482;28;20718;-71
2021/12/22 10:16:28;;;;;;;21.80;11.40;;;;;;;;;;4951873;28;20306;-71
2021/12/22 10:19:10;;;;;;;15.27;7.53;;;;;;;;;;4954780;28;20310;-71
2021/12/22 10:22:01;;;;;;;12.17;6.90;;;;;;;;;;4952454;28;20339;-71
2021/12/22 10:24:38;;;;;;;14.70;6.87;;;;;;;;;;4945560;28;20313;-71
2021/12/22 10:27:19;;;;;;;11.70;5.47;;;;;;;;;;5061502;23;20236;-62
2021/12/22 10:29:47;;;;;;;11.20;5.83;;;;;;;;;;5017053;28;20240;-63
2021/12/22 10:32:16;;;;;;;10.07;6.30;;;;;;;;;;5029156;28;20286;-63
2021/12/22 10:34:56;;;;;;;9.30;4.87;;;;;;;;;;5018180;28;20237;-63
2021/12/22 10:37:31;;;;;;;6.30;4.57;;;;;;;;;;5011818;28;20262;-63
2021/12/22 10:39:59;;;;;;;10.93;6.10;;;;;;;;;;5010445;28;20290;-66
2021/12/22 10:42:40;;;;;;;5.80;3.70;;;;;;;;;;5006724;28;20367;-63
2021/12/22 10:45:18;;;;;;;7.83;4.23;;;;;;;;;;5026522;28;20228;-63
2021/12/22 10:50:33;;;;;;;7.30;4.97;;;;;;;;;;5026698;28;20236;-64
2021/12/22 10:53:01;;;;;;;14.60;7.07;;;;;;;;;;5027541;28;20268;-62
2021/12/22 10:55:50;;;;;;;10.00;5.97;;;;;;;;;;5025993;28;20709;-64
2021/12/22 10:58:23;;;;;;;7.97;5.03;;;;;;;;;;5028160;28;20252;-65
2021/12/22 11:01:12;;;;;;;17.87;5.63;;;;;;;;;;5027735;28;20245;-65
2021/12/22 11:03:54;;;;;;;10.70;5.93;;;;;;;;;;5029106;28;20224;-63
2021/12/22 11:06:28;;;;;;;12.13;6.13;;;;;;;;;;5027978;28;20252;-64
2021/12/22 11:09:15;;;;;;;10.13;6.10;;;;;;;;;;5008644;28;20237;-64
2021/12/22 11:11:49;;;;;;;10.90;6.30;;;;;;;;;;5023410;28;20240;-63
2021/12/22 11:14:19;;;;;;;10.53;6.57;;;;;;;;;;5027693;28;20305;-64
2021/12/22 11:16:55;;;;;;;8.60;4.03;;;;;;;;;;5026946;28;20224;-64
2021/12/22 11:19:25;;;;;;;6.80;4.53;;;;;;;;;;5027978;28;20228;-67
2021/12/22 11:22:01;;;;;;;13.23;7.60;;;;;;;;;;5030204;28;20279;-66
2021/12/22 11:24:31;;;;;;;17.60;8.80;;;;;;;;;;5026642;28;20262;-62
2021/12/22 11:26:59;;;;;;;14.10;7.37;;;;;;;;;;5013677;28;20236;-63
2021/12/22 11:29:27;;;;;;;17.17;9.70;;;;;;;;;;5024671;28;20240;-62
2021/12/22 11:31:55;;;;;;;15.13;8.20;;;;;;;;;;5012425;28;20244;-65
2021/12/22 11:34:23;;;;;;;12.90;8.23;;;;;;;;;;5014163;28;20244;-62
2021/12/22 11:36:50;;;;;;;11.90;6.87;;;;;;;;;;5013043;28;20343;-63
2021/12/22 11:39:19;;;;;;;21.00;10.57;;;;;;;;;;5012527;28;20238;-63
2021/12/22 11:41:56;;;;;;;17.30;9.70;;;;;;;;;;5032808;28;20715;-62
2021/12/22 11:44:28;;;;;;;10.93;5.43;;;;;;;;;;5014632;28;20782;-63
2021/12/22 11:46:58;;;;;;;13.93;7.47;;;;;;;;;;5034006;28;20630;-63
2021/12/22 11:49:27;;;;;;;9.90;5.80;;;;;;;;;;5032897;28;20274;-63
2021/12/22 11:51:57;;;;;;;12.23;4.90;;;;;;;;;;5029818;28;20236;-63
2021/12/22 11:54:28;;;;;;;10.10;5.27;;;;;;;;;;5027699;28;20567;-62
2021/12/22 11:56:58;;;;;;;13.47;6.07;;;;;;;;;;5033470;28;20240;-62
2021/12/22 11:59:38;;;;;;;11.87;5.73;;;;;;;;;;5033360;28;20278;-62
2021/12/22 12:02:33;;;;;;;10.13;6.13;;;;;;;;;;5033234;28;20230;-62
2021/12/22 12:05:25;;;;;;;12.87;7.17;;;;;;;;;;5030210;28;20236;-68
2021/12/22 12:07:57;;;;;;;12.13;5.03;;;;;;;;;;5029346;28;20221;-62
2021/12/22 12:10:40;;;;;;;14.03;6.40;;;;;;;;;;5006247;28;20249;-63
2021/12/22 12:13:26;;;;;;;13.17;6.47;;;;;;;;;;5022166;28;20263;-63
2021/12/22 12:21:54;;;;;;;10.80;4.27;;;;;;;;;;5020770;28;20237;-60
2021/12/22 12:24:30;;;;;;;8.63;4.37;;;;;;;;;;5021684;28;20625;-62
2021/12/22 12:27:00;;;;;;;13.50;6.87;;;;;;;;;;5029368;28;20264;-61
2021/12/22 12:29:56;;;;;;;17.97;7.57;;;;;;;;;;5028514;28;20232;-61
2021/12/22 12:32:40;;;;;;;14.90;7.73;;;;;;;;;;5028067;28;20236;-60
2021/12/22 12:35:23;;;;;;;10.87;5.87;;;;;;;;;;5026152;28;20236;-61
2021/12/22 12:38:17;;;;;;;16.70;7.70;;;;;;;;;;5027265;28;20232;-62
2021/12/22 12:41:02;;;;;;;14.10;7.97;;;;;;;;;;5012942;28;20232;-63
2021/12/22 12:43:53;;;;;;;18.17;9.23;;;;;;;;;;5024729;28;20292;-63
2021/12/22 12:46:21;;;;;;;18.47;10.07;;;;;;;;;;5028131;28;20232;-65
2021/12/22 12:48:51;;;;;;;16.07;7.37;;;;;;;;;;5027942;28;20233;-63
2021/12/22 12:51:29;;;;;;;28.93;14.10;;;;;;;;;;5030141;28;20240;-63
2021/12/22 12:53:59;;;;;;;22.93;11.97;;;;;;;;;;5030002;28;20259;-64
2021/12/22 12:56:32;;;;;;;13.10;8.37;;;;;;;;;;5023947;28;20657;-62
2021/12/22 12:59:12;;;;;;;22.77;10.20;;;;;;;;;;5028846;28;20228;-62
2021/12/22 13:01:52;;;;;;;21.43;8.23;;;;;;;;;;5029580;28;20236;-62
2021/12/22 13:04:31;;;;;;;31.90;15.53;;;;;;;;;;5029229;28;20339;-64
2021/12/22 13:07:06;;;;;;;30.33;16.37;;;;;;;;;;5026377;28;20235;-62
2021/12/22 13:09:35;;;;;;;25.33;12.57;;;;;;;;;;5027322;28;20686;-63
2021/12/22 13:17:49;;;;;;;18.90;9.97;;;;;;;;;;5025347;28;20236;-65
2021/12/22 13:20:19;;;;;;;28.97;13.87;;;;;;;;;;5027268;28;20241;-65
2021/12/22 13:22:49;;;;;;;14.37;8.13;;;;;;;;;;5028277;28;20232;-62
2021/12/22 13:25:23;;;;;;;15.00;6.27;;;;;;;;;;5030122;28;20299;-61
2021/12/22 13:27:56;;;;;;;23.27;7.80;;;;;;;;;;5026252;28;20602;-62
2021/12/22 13:30:28;;;;;;;18.00;7.07;;;;;;;;;;5026609;28;20236;-64
2021/12/22 13:32:59;;;;;;;14.37;7.90;;;;;;;;;;5011387;28;20247;-62
2021/12/22 13:35:31;;;;;;;14.90;6.43;;;;;;;;;;5027178;28;20636;-62
2021/12/22 13:38:01;;;;;;;17.90;8.43;;;;;;;;;;5047734;23;20706;-68
2021/12/22 13:40:37;;;;;;;24.10;12.87;;;;;;;;;;5018781;23;20329;-68
2021/12/22 13:43:05;;;;;;;6.90;4.77;;;;;;;;;;5134022;23;21757;-66
2021/12/22 13:45:33;;;;;;;11.87;6.00;;;;;;;;;;4963310;28;20285;-65
2021/12/22 13:48:02;;;;;;;10.57;6.77;;;;;;;;;;4982908;28;20320;-65
2021/12/22 13:50:29;;;;;;;19.50;8.13;;;;;;;;;;5005309;23;20264;-67
2021/12/22 13:52:57;;;;;;;18.33;7.60;;;;;;;;;;5024061;28;20784;-65
2021/12/22 13:55:24;;;;;;;24.90;11.57;;;;;;;;;;5024245;28;20239;-63
2021/12/22 13:57:51;;;;;;;29.10;13.27;;;;;;;;;;5018767;28;20274;-63
2021/12/22 14:00:20;;;;;;;21.30;9.97;;;;;;;;;;5009243;28;20697;-64
2021/12/22 14:02:47;;;;;;;6.93;4.57;;;;;;;;;;5023660;28;20298;-64
2021/12/22 14:05:20;;;;;;;16.43;9.37;;;;;;;;;;5014169;28;20722;-65
2021/12/22 14:07:48;;;;;;;16.63;8.37;;;;;;;;;;5001996;28;20221;-63
2021/12/22 14:10:16;;;;;;;14.67;6.37;;;;;;;;;;5025339;28;20311;-63
2021/12/22 14:12:45;;;;;;;23.23;10.30;;;;;;;;;;5022271;28;20268;-60
2021/12/22 14:15:12;;;;;;;20.70;9.70;;;;;;;;;;4996283;28;20399;-59
2021/12/22 14:17:43;;;;;;;8.80;5.10;;;;;;;;;;5013324;28;20225;-60
2021/12/22 14:20:17;;;;;;;13.37;7.50;;;;;;;;;;5025677;28;20580;-62
2021/12/22 14:23:07;;;;;;;13.10;5.93;;;;;;;;;;5024609;28;20216;-67
2021/12/22 14:25:37;;;;;;;18.27;9.57;;;;;;;;;;5023232;28;20232;-65
2021/12/22 14:28:24;;;;;;;11.97;6.00;;;;;;;;;;5023823;28;20217;-62
2021/12/22 14:30:52;;;;;;;27.60;11.83;;;;;;;;;;5027093;28;20220;-61
2021/12/22 14:33:21;;;;;;;22.33;12.00;;;;;;;;;;5013257;28;20225;-62
2021/12/22 14:36:00;;;;;;;16.50;7.50;;;;;;;;;;5037876;23;20376;-67
2021/12/22 14:38:33;;;;;;;17.87;9.50;;;;;;;;;;5005730;28;20581;-66
2021/12/22 14:51:45;;;;;;;11.70;6.77;;;;;;;;;;4868556;23;20624;-74
2021/12/22 15:01:14;;;;;;;21.97;11.57;;;;;;;;;;5025124;28;20213;-69
2021/12/22 15:03:42;;;;;;;18.27;8.03;;;;;;;;;;5025355;28;20224;-73
2021/12/22 17:38:46;;;;;;;38.00;14.15;;;;;;;;;;5084243;27;20919;-67
2021/12/22 17:44:28;;;;;;;13.38;10.05;;;;;;;;;;5109636;27;21146;-74
2021/12/22 17:46:56;;;;;;;14.43;10.70;;;;;;;;;;5107994;27;20233;-73
2021/12/22 17:49:24;;;;;;;16.17;11.95;;;;;;;;;;5108456;28;20590;-77
2021/12/22 17:51:51;;;;;;;18.10;12.70;;;;;;;;;;5108009;28;20234;-72
2021/12/22 17:54:39;;;;;;;24.73;15.77;;;;;;;;;;5109191;28;20260;-70
2021/12/22 17:57:06;;;;;;;27.50;15.57;;;;;;;;;;5107875;27;20316;-70
2021/12/22 17:59:33;;;;;;;25.80;14.60;;;;;;;;;;5109556;28;20301;-74
2021/12/22 18:02:01;;;;;;;24.73;13.87;;;;;;;;;;5108700;28;20234;-74
2021/12/22 18:04:32;;;;;;;26.00;14.50;;;;;;;;;;5109716;28;20241;-74
2021/12/22 18:07:00;;;;;;;23.33;14.30;;;;;;;;;;5109499;27;20234;-70
2021/12/22 18:09:27;;;;;;;42.60;20.13;;;;;;;;;;5109965;28;20264;-75
2021/12/22 18:11:55;;;;;;;59.23;23.17;;;;;;;;;;5110618;28;20240;-75
2021/12/22 18:14:27;;;;;;;111.27;37.33;;;;;;;;;;5110829;28;20275;-77